CheckWX is a tool to help pilots better visualize weather data.  It is not intended as a substitute for an official pre-flight weather briefing.

05:20:07 UTC

EDMO METAR
Oberpfaffenhofen Airport
Germany
Current

11 hours ago

EDMO 191850Z 27004KT CAVOK 07/01 Q1020
Observed
Feb-19 @ 18:50 UTC
Wind
  • 270° at 4 KTS
Visibility
10,000+ meters
Flight Rules
VFR
Cloud Levels
  • Clear skies
Temperature
C / 45°F
Dewpoint
C / 34°F
Humidity
66%
Altimeter
30.12" Hg
Pressure
1019.92 hPa
Previous

11 hours ago

EDMO 191820Z 23004KT CAVOK 05/01 Q1020
Observed
Feb-19 @ 18:20 UTC
Wind
  • 230° at 4 KTS
Visibility
10,000+ meters
Flight Rules
VFR
Cloud Levels
  • Clear skies
Temperature
C / 41°F
Dewpoint
C / 34°F
Humidity
76%
Altimeter
30.12" Hg
Pressure
1019.92 hPa
Previous

12 hours ago

EDMO 191750Z 24004KT CAVOK 05/01 Q1020
Observed
Feb-19 @ 17:50 UTC
Wind
  • 240° at 4 KTS
Visibility
10,000+ meters
Flight Rules
VFR
Cloud Levels
  • Clear skies
Temperature
C / 41°F
Dewpoint
C / 34°F
Humidity
76%
Altimeter
30.12" Hg
Pressure
1019.92 hPa